sensor_id;sensor_type;location;lat;lon;timestamp;P1;durP1;ratioP1;P2;durP2;ratioP2
4616;SDS011;2321;42.704;23.384;2022-09-13T00:02:14;2.43;;;2.30;;
4616;SDS011;2321;42.704;23.384;2022-09-13T00:04:41;2.93;;;2.83;;
4616;SDS011;2321;42.704;23.384;2022-09-13T00:07:08;5.13;;;3.47;;
4616;SDS011;2321;42.704;23.384;2022-09-13T00:09:35;3.10;;;2.90;;
4616;SDS011;2321;42.704;23.384;2022-09-13T00:12:02;4.30;;;3.10;;
4616;SDS011;2321;42.704;23.384;2022-09-13T00:14:30;2.30;;;2.20;;
4616;SDS011;2321;42.704;23.384;2022-09-13T00:16:57;2.80;;;2.60;;
4616;SDS011;2321;42.704;23.384;2022-09-13T00:19:25;2.47;;;2.27;;
4616;SDS011;2321;42.704;23.384;2022-09-13T00:21:52;3.27;;;2.90;;
4616;SDS011;2321;42.704;23.384;2022-09-13T00:24:19;3.53;;;3.27;;
4616;SDS011;2321;42.704;23.384;2022-09-13T00:26:46;4.70;;;2.90;;
4616;SDS011;2321;42.704;23.384;2022-09-13T00:29:13;3.50;;;2.60;;
4616;SDS011;2321;42.704;23.384;2022-09-13T00:31:40;3.23;;;2.73;;
4616;SDS011;2321;42.704;23.384;2022-09-13T00:34:07;3.87;;;3.40;;
4616;SDS011;2321;42.704;23.384;2022-09-13T00:36:35;3.20;;;2.57;;
4616;SDS011;2321;42.704;23.384;2022-09-13T00:39:02;7.13;;;3.50;;
4616;SDS011;2321;42.704;23.384;2022-09-13T00:41:29;3.00;;;2.80;;
4616;SDS011;2321;42.704;23.384;2022-09-13T00:43:57;2.80;;;2.70;;
4616;SDS011;2321;42.704;23.384;2022-09-13T00:46:27;6.40;;;3.30;;
4616;SDS011;2321;42.704;23.384;2022-09-13T00:49:00;3.07;;;2.80;;
4616;SDS011;2321;42.704;23.384;2022-09-13T00:51:30;6.60;;;3.07;;
4616;SDS011;2321;42.704;23.384;2022-09-13T00:53:58;3.07;;;2.77;;
4616;SDS011;2321;42.704;23.384;2022-09-13T00:56:28;3.00;;;2.80;;
4616;SDS011;2321;42.704;23.384;2022-09-13T00:58:59;2.77;;;2.60;;
4616;SDS011;2321;42.704;23.384;2022-09-13T01:01:30;2.67;;;2.57;;
4616;SDS011;2321;42.704;23.384;2022-09-13T01:04:02;5.43;;;2.67;;
4616;SDS011;2321;42.704;23.384;2022-09-13T01:06:30;3.17;;;2.80;;
4616;SDS011;2321;42.704;23.384;2022-09-13T01:09:02;2.80;;;2.57;;
4616;SDS011;2321;42.704;23.384;2022-09-13T01:11:31;6.83;;;2.80;;
4616;SDS011;2321;42.704;23.384;2022-09-13T01:14:06;2.50;;;2.40;;
4616;SDS011;2321;42.704;23.384;2022-09-13T01:16:35;3.03;;;2.83;;
4616;SDS011;2321;42.704;23.384;2022-09-13T01:19:02;4.20;;;3.80;;
4616;SDS011;2321;42.704;23.384;2022-09-13T01:24:46;2.00;;;1.90;;
4616;SDS011;2321;42.704;23.384;2022-09-13T01:27:34;3.10;;;2.90;;
4616;SDS011;2321;42.704;23.384;2022-09-13T01:30:10;3.87;;;2.80;;
4616;SDS011;2321;42.704;23.384;2022-09-13T01:32:49;3.73;;;3.33;;
4616;SDS011;2321;42.704;23.384;2022-09-13T01:35:30;2.97;;;2.73;;
4616;SDS011;2321;42.704;23.384;2022-09-13T01:38:15;2.50;;;2.40;;
4616;SDS011;2321;42.704;23.384;2022-09-13T01:40:57;2.93;;;2.83;;
4616;SDS011;2321;42.704;23.384;2022-09-13T01:43:38;3.00;;;2.80;;
4616;SDS011;2321;42.704;23.384;2022-09-13T01:46:17;3.90;;;2.90;;
4616;SDS011;2321;42.704;23.384;2022-09-13T01:48:54;2.63;;;2.53;;
4616;SDS011;2321;42.704;23.384;2022-09-13T01:51:30;7.60;;;2.80;;
4616;SDS011;2321;42.704;23.384;2022-09-13T01:54:05;2.60;;;2.50;;
4616;SDS011;2321;42.704;23.384;2022-09-13T01:56:40;16.77;;;3.27;;
4616;SDS011;2321;42.704;23.384;2022-09-13T01:59:17;4.33;;;2.97;;
4616;SDS011;2321;42.704;23.384;2022-09-13T02:01:53;2.47;;;2.37;;
4616;SDS011;2321;42.704;23.384;2022-09-13T02:04:26;2.43;;;2.30;;
4616;SDS011;2321;42.704;23.384;2022-09-13T02:07:01;2.50;;;2.20;;
4616;SDS011;2321;42.704;23.384;2022-09-13T02:09:33;2.37;;;2.27;;
4616;SDS011;2321;42.704;23.384;2022-09-13T02:12:06;2.27;;;2.10;;
4616;SDS011;2321;42.704;23.384;2022-09-13T02:14:40;2.67;;;2.47;;
4616;SDS011;2321;42.704;23.384;2022-09-13T02:17:11;2.67;;;2.57;;
4616;SDS011;2321;42.704;23.384;2022-09-13T02:19:42;2.33;;;2.20;;
4616;SDS011;2321;42.704;23.384;2022-09-13T02:22:17;2.43;;;2.33;;
4616;SDS011;2321;42.704;23.384;2022-09-13T02:24:50;2.50;;;2.33;;
4616;SDS011;2321;42.704;23.384;2022-09-13T02:27:22;2.20;;;2.10;;
4616;SDS011;2321;42.704;23.384;2022-09-13T02:29:54;2.70;;;2.53;;
4616;SDS011;2321;42.704;23.384;2022-09-13T02:32:27;1.70;;;1.70;;
4616;SDS011;2321;42.704;23.384;2022-09-13T02:34:59;2.80;;;2.17;;
4616;SDS011;2321;42.704;23.384;2022-09-13T02:37:30;3.27;;;2.40;;
4616;SDS011;2321;42.704;23.384;2022-09-13T02:40:01;2.50;;;2.40;;
4616;SDS011;2321;42.704;23.384;2022-09-13T02:42:33;12.80;;;3.57;;
4616;SDS011;2321;42.704;23.384;2022-09-13T02:45:06;5.63;;;3.50;;
4616;SDS011;2321;42.704;23.384;2022-09-13T02:47:41;6.70;;;3.10;;
4616;SDS011;2321;42.704;23.384;2022-09-13T02:50:19;3.00;;;2.80;;
4616;SDS011;2321;42.704;23.384;2022-09-13T02:52:58;3.90;;;3.50;;
4616;SDS011;2321;42.704;23.384;2022-09-13T02:55:30;2.90;;;2.70;;
4616;SDS011;2321;42.704;23.384;2022-09-13T02:58:08;2.50;;;2.30;;
4616;SDS011;2321;42.704;23.384;2022-09-13T03:00:40;3.20;;;3.00;;
4616;SDS011;2321;42.704;23.384;2022-09-13T03:03:10;5.30;;;3.33;;
4616;SDS011;2321;42.704;23.384;2022-09-13T03:05:40;7.47;;;3.87;;
4616;SDS011;2321;42.704;23.384;2022-09-13T03:08:07;3.07;;;2.70;;
4616;SDS011;2321;42.704;23.384;2022-09-13T03:10:40;2.70;;;2.50;;
4616;SDS011;2321;42.704;23.384;2022-09-13T03:13:39;6.30;;;2.37;;
4616;SDS011;2321;42.704;23.384;2022-09-13T03:16:22;5.27;;;3.13;;
4616;SDS011;2321;42.704;23.384;2022-09-13T03:19:16;3.20;;;2.47;;
4616;SDS011;2321;42.704;23.384;2022-09-13T03:21:53;5.77;;;2.60;;
4616;SDS011;2321;42.704;23.384;2022-09-13T03:24:35;5.00;;;3.13;;
4616;SDS011;2321;42.704;23.384;2022-09-13T03:27:17;3.43;;;3.03;;
4616;SDS011;2321;42.704;23.384;2022-09-13T03:29:55;3.90;;;3.23;;
4616;SDS011;2321;42.704;23.384;2022-09-13T03:32:30;3.87;;;3.40;;
4616;SDS011;2321;42.704;23.384;2022-09-13T03:35:05;2.73;;;2.53;;
4616;SDS011;2321;42.704;23.384;2022-09-13T03:37:39;4.50;;;3.70;;
4616;SDS011;2321;42.704;23.384;2022-09-13T03:40:13;3.90;;;2.67;;
4616;SDS011;2321;42.704;23.384;2022-09-13T03:42:47;4.83;;;3.50;;
4616;SDS011;2321;42.704;23.384;2022-09-13T03:45:20;2.90;;;2.70;;
4616;SDS011;2321;42.704;23.384;2022-09-13T03:47:51;3.30;;;3.10;;
4616;SDS011;2321;42.704;23.384;2022-09-13T03:50:21;2.80;;;2.70;;
4616;SDS011;2321;42.704;23.384;2022-09-13T03:52:51;17.40;;;2.57;;
4616;SDS011;2321;42.704;23.384;2022-09-13T03:55:23;37.23;;;3.20;;
4616;SDS011;2321;42.704;23.384;2022-09-13T03:57:51;6.03;;;3.30;;
4616;SDS011;2321;42.704;23.384;2022-09-13T04:00:18;4.33;;;3.00;;
4616;SDS011;2321;42.704;23.384;2022-09-13T04:02:45;2.40;;;2.27;;
4616;SDS011;2321;42.704;23.384;2022-09-13T04:05:12;3.93;;;3.20;;
4616;SDS011;2321;42.704;23.384;2022-09-13T04:07:41;4.17;;;3.80;;
4616;SDS011;2321;42.704;23.384;2022-09-13T04:10:08;2.57;;;2.07;;
4616;SDS011;2321;42.704;23.384;2022-09-13T04:12:36;3.90;;;3.70;;
4616;SDS011;2321;42.704;23.384;2022-09-13T04:15:05;3.37;;;3.20;;
4616;SDS011;2321;42.704;23.384;2022-09-13T04:17:34;4.20;;;3.57;;
4616;SDS011;2321;42.704;23.384;2022-09-13T04:20:01;15.20;;;3.13;;
4616;SDS011;2321;42.704;23.384;2022-09-13T04:22:29;2.70;;;2.60;;
4616;SDS011;2321;42.704;23.384;2022-09-13T04:24:59;7.00;;;3.13;;
4616;SDS011;2321;42.704;23.384;2022-09-13T04:27:26;6.70;;;3.23;;
4616;SDS011;2321;42.704;23.384;2022-09-13T04:29:53;2.80;;;2.70;;
4616;SDS011;2321;42.704;23.384;2022-09-13T04:32:20;4.30;;;3.00;;
4616;SDS011;2321;42.704;23.384;2022-09-13T04:34:47;4.30;;;3.60;;
4616;SDS011;2321;42.704;23.384;2022-09-13T04:37:14;2.87;;;2.67;;
4616;SDS011;2321;42.704;23.384;2022-09-13T04:39:41;2.90;;;2.70;;
4616;SDS011;2321;42.704;23.384;2022-09-13T04:42:09;6.63;;;3.30;;
4616;SDS011;2321;42.704;23.384;2022-09-13T04:44:36;8.20;;;3.30;;
4616;SDS011;2321;42.704;23.384;2022-09-13T04:47:03;19.07;;;3.10;;
4616;SDS011;2321;42.704;23.384;2022-09-13T04:49:32;4.23;;;3.07;;
4616;SDS011;2321;42.704;23.384;2022-09-13T04:51:59;4.50;;;3.97;;
4616;SDS011;2321;42.704;23.384;2022-09-13T04:54:26;6.77;;;4.90;;
4616;SDS011;2321;42.704;23.384;2022-09-13T04:56:53;10.13;;;3.67;;
4616;SDS011;2321;42.704;23.384;2022-09-13T04:59:21;7.87;;;3.97;;
4616;SDS011;2321;42.704;23.384;2022-09-13T05:01:48;3.83;;;3.23;;
4616;SDS011;2321;42.704;23.384;2022-09-13T05:04:15;3.20;;;2.70;;
4616;SDS011;2321;42.704;23.384;2022-09-13T05:06:42;6.57;;;3.90;;
4616;SDS011;2321;42.704;23.384;2022-09-13T05:09:10;2.60;;;2.50;;
4616;SDS011;2321;42.704;23.384;2022-09-13T05:11:39;11.53;;;2.10;;
4616;SDS011;2321;42.704;23.384;2022-09-13T05:14:08;16.83;;;3.67;;
4616;SDS011;2321;42.704;23.384;2022-09-13T05:16:37;3.37;;;3.07;;
4616;SDS011;2321;42.704;23.384;2022-09-13T05:19:04;4.37;;;3.00;;
4616;SDS011;2321;42.704;23.384;2022-09-13T05:21:31;3.93;;;3.70;;
4616;SDS011;2321;42.704;23.384;2022-09-13T05:23:58;6.23;;;4.10;;
4616;SDS011;2321;42.704;23.384;2022-09-13T05:26:25;4.53;;;4.13;;
4616;SDS011;2321;42.704;23.384;2022-09-13T05:28:55;9.13;;;3.50;;
4616;SDS011;2321;42.704;23.384;2022-09-13T05:31:23;4.93;;;4.53;;
4616;SDS011;2321;42.704;23.384;2022-09-13T05:33:54;5.60;;;4.40;;
4616;SDS011;2321;42.704;23.384;2022-09-13T05:36:23;3.93;;;3.63;;
4616;SDS011;2321;42.704;23.384;2022-09-13T05:38:50;6.67;;;3.30;;
4616;SDS011;2321;42.704;23.384;2022-09-13T05:41:17;4.40;;;2.90;;
4616;SDS011;2321;42.704;23.384;2022-09-13T05:43:44;9.93;;;3.30;;
4616;SDS011;2321;42.704;23.384;2022-09-13T05:46:12;3.70;;;3.40;;
4616;SDS011;2321;42.704;23.384;2022-09-13T05:48:40;3.30;;;3.03;;
4616;SDS011;2321;42.704;23.384;2022-09-13T05:51:09;3.33;;;2.67;;
4616;SDS011;2321;42.704;23.384;2022-09-13T05:53:38;3.20;;;2.90;;
4616;SDS011;2321;42.704;23.384;2022-09-13T05:56:07;1.60;;;1.50;;
4616;SDS011;2321;42.704;23.384;2022-09-13T05:58:37;3.47;;;3.17;;
4616;SDS011;2321;42.704;23.384;2022-09-13T06:01:05;5.17;;;3.03;;
4616;SDS011;2321;42.704;23.384;2022-09-13T06:03:32;2.70;;;2.50;;
4616;SDS011;2321;42.704;23.384;2022-09-13T06:06:00;3.53;;;3.23;;
4616;SDS011;2321;42.704;23.384;2022-09-13T06:08:29;2.03;;;1.93;;
4616;SDS011;2321;42.704;23.384;2022-09-13T06:10:58;3.30;;;3.00;;
4616;SDS011;2321;42.704;23.384;2022-09-13T06:13:26;18.33;;;2.80;;
4616;SDS011;2321;42.704;23.384;2022-09-13T06:15:55;2.90;;;2.57;;
4616;SDS011;2321;42.704;23.384;2022-09-13T06:18:23;3.20;;;2.20;;
4616;SDS011;2321;42.704;23.384;2022-09-13T06:20:50;2.37;;;2.27;;
4616;SDS011;2321;42.704;23.384;2022-09-13T06:23:23;3.00;;;2.70;;
4616;SDS011;2321;42.704;23.384;2022-09-13T06:25:59;2.90;;;2.60;;
4616;SDS011;2321;42.704;23.384;2022-09-13T06:28:28;3.30;;;3.10;;
4616;SDS011;2321;42.704;23.384;2022-09-13T06:31:01;2.10;;;2.00;;
4616;SDS011;2321;42.704;23.384;2022-09-13T06:33:28;3.03;;;2.70;;
4616;SDS011;2321;42.704;23.384;2022-09-13T06:35:58;2.10;;;2.00;;
4616;SDS011;2321;42.704;23.384;2022-09-13T06:38:26;5.33;;;3.30;;
4616;SDS011;2321;42.704;23.384;2022-09-13T06:41:04;2.97;;;2.80;;
4616;SDS011;2321;42.704;23.384;2022-09-13T06:43:32;3.40;;;3.03;;
4616;SDS011;2321;42.704;23.384;2022-09-13T06:46:00;2.67;;;2.53;;
4616;SDS011;2321;42.704;23.384;2022-09-13T06:48:32;2.80;;;2.63;;
4616;SDS011;2321;42.704;23.384;2022-09-13T06:50:59;3.13;;;2.57;;
4616;SDS011;2321;42.704;23.384;2022-09-13T06:53:27;2.80;;;2.60;;
4616;SDS011;2321;42.704;23.384;2022-09-13T06:56:02;2.60;;;2.43;;
4616;SDS011;2321;42.704;23.384;2022-09-13T06:58:32;2.53;;;2.43;;
4616;SDS011;2321;42.704;23.384;2022-09-13T07:01:07;2.43;;;2.33;;
4616;SDS011;2321;42.704;23.384;2022-09-13T07:03:35;8.20;;;2.20;;
4616;SDS011;2321;42.704;23.384;2022-09-13T07:06:12;16.53;;;1.87;;
4616;SDS011;2321;42.704;23.384;2022-09-13T07:08:41;3.77;;;2.20;;
4616;SDS011;2321;42.704;23.384;2022-09-13T07:11:11;1.60;;;1.60;;
4616;SDS011;2321;42.704;23.384;2022-09-13T07:13:40;4.27;;;2.40;;
4616;SDS011;2321;42.704;23.384;2022-09-13T07:16:08;2.47;;;2.27;;
4616;SDS011;2321;42.704;23.384;2022-09-13T07:18:36;2.60;;;2.40;;
4616;SDS011;2321;42.704;23.384;2022-09-13T07:21:04;3.33;;;2.30;;
4616;SDS011;2321;42.704;23.384;2022-09-13T07:23:33;2.60;;;2.40;;
4616;SDS011;2321;42.704;23.384;2022-09-13T07:26:01;2.03;;;1.93;;
4616;SDS011;2321;42.704;23.384;2022-09-13T07:28:32;2.27;;;2.10;;
4616;SDS011;2321;42.704;23.384;2022-09-13T07:31:03;1.73;;;1.63;;
4616;SDS011;2321;42.704;23.384;2022-09-13T07:33:32;2.03;;;1.93;;
4616;SDS011;2321;42.704;23.384;2022-09-13T07:35:59;2.03;;;1.83;;
4616;SDS011;2321;42.704;23.384;2022-09-13T07:38:30;1.70;;;1.60;;
4616;SDS011;2321;42.704;23.384;2022-09-13T07:40:58;1.87;;;1.77;;
4616;SDS011;2321;42.704;23.384;2022-09-13T07:43:25;1.80;;;1.70;;
4616;SDS011;2321;42.704;23.384;2022-09-13T07:45:58;1.87;;;1.77;;
4616;SDS011;2321;42.704;23.384;2022-09-13T07:48:28;2.53;;;2.10;;
4616;SDS011;2321;42.704;23.384;2022-09-13T07:50:56;2.57;;;2.37;;
4616;SDS011;2321;42.704;23.384;2022-09-13T07:53:25;2.37;;;2.27;;
4616;SDS011;2321;42.704;23.384;2022-09-13T07:55:52;7.10;;;1.97;;
4616;SDS011;2321;42.704;23.384;2022-09-13T07:58:19;3.10;;;2.33;;
4616;SDS011;2321;42.704;23.384;2022-09-13T08:00:46;1.63;;;1.63;;
4616;SDS011;2321;42.704;23.384;2022-09-13T08:03:14;1.67;;;1.57;;
4616;SDS011;2321;42.704;23.384;2022-09-13T08:05:41;1.77;;;1.77;;
4616;SDS011;2321;42.704;23.384;2022-09-13T08:08:08;1.90;;;1.80;;
4616;SDS011;2321;42.704;23.384;2022-09-13T08:10:35;2.87;;;2.03;;
4616;SDS011;2321;42.704;23.384;2022-09-13T08:13:02;2.00;;;1.83;;
4616;SDS011;2321;42.704;23.384;2022-09-13T08:15:29;1.77;;;1.70;;
4616;SDS011;2321;42.704;23.384;2022-09-13T08:17:56;2.40;;;2.17;;
4616;SDS011;2321;42.704;23.384;2022-09-13T08:20:24;1.90;;;1.80;;
4616;SDS011;2321;42.704;23.384;2022-09-13T08:22:51;1.80;;;1.63;;
4616;SDS011;2321;42.704;23.384;2022-09-13T08:25:18;3.00;;;1.60;;
4616;SDS011;2321;42.704;23.384;2022-09-13T08:27:45;1.40;;;1.40;;
4616;SDS011;2321;42.704;23.384;2022-09-13T08:30:12;1.50;;;1.40;;
4616;SDS011;2321;42.704;23.384;2022-09-13T08:32:39;1.63;;;1.53;;
4616;SDS011;2321;42.704;23.384;2022-09-13T08:35:06;1.73;;;1.63;;
4616;SDS011;2321;42.704;23.384;2022-09-13T08:37:35;3.20;;;1.50;;
4616;SDS011;2321;42.704;23.384;2022-09-13T08:40:02;1.43;;;1.10;;
4616;SDS011;2321;42.704;23.384;2022-09-13T08:42:33;1.60;;;1.50;;
4616;SDS011;2321;42.704;23.384;2022-09-13T08:45:11;2.10;;;1.90;;
4616;SDS011;2321;42.704;23.384;2022-09-13T08:47:39;1.60;;;1.50;;
4616;SDS011;2321;42.704;23.384;2022-09-13T08:50:13;1.97;;;1.67;;
4616;SDS011;2321;42.704;23.384;2022-09-13T08:52:48;1.10;;;1.10;;
4616;SDS011;2321;42.704;23.384;2022-09-13T08:55:27;1.40;;;1.30;;
4616;SDS011;2321;42.704;23.384;2022-09-13T08:58:07;1.93;;;1.70;;
4616;SDS011;2321;42.704;23.384;2022-09-13T09:00:45;1.43;;;1.43;;
4616;SDS011;2321;42.704;23.384;2022-09-13T09:03:20;1.10;;;1.10;;
4616;SDS011;2321;42.704;23.384;2022-09-13T09:05:54;1.30;;;1.30;;
4616;SDS011;2321;42.704;23.384;2022-09-13T09:08:28;1.50;;;1.50;;
4616;SDS011;2321;42.704;23.384;2022-09-13T09:11:01;2.07;;;1.90;;
4616;SDS011;2321;42.704;23.384;2022-09-13T09:13:31;1.27;;;1.20;;
4616;SDS011;2321;42.704;23.384;2022-09-13T09:16:01;1.20;;;1.20;;
4616;SDS011;2321;42.704;23.384;2022-09-13T09:18:33;1.60;;;1.60;;
4616;SDS011;2321;42.704;23.384;2022-09-13T09:21:05;1.37;;;1.37;;
4616;SDS011;2321;42.704;23.384;2022-09-13T09:23:39;1.40;;;1.37;;
4616;SDS011;2321;42.704;23.384;2022-09-13T09:26:13;1.30;;;1.30;;
4616;SDS011;2321;42.704;23.384;2022-09-13T09:28:42;1.37;;;1.30;;
4616;SDS011;2321;42.704;23.384;2022-09-13T09:31:13;1.87;;;1.50;;
4616;SDS011;2321;42.704;23.384;2022-09-13T09:33:53;1.80;;;1.70;;
4616;SDS011;2321;42.704;23.384;2022-09-13T09:36:29;4.63;;;2.37;;
4616;SDS011;2321;42.704;23.384;2022-09-13T09:39:04;1.90;;;1.80;;
4616;SDS011;2321;42.704;23.384;2022-09-13T09:41:35;1.73;;;1.63;;
4616;SDS011;2321;42.704;23.384;2022-09-13T09:44:05;3.70;;;1.67;;
4616;SDS011;2321;42.704;23.384;2022-09-13T09:46:43;1.50;;;1.50;;
4616;SDS011;2321;42.704;23.384;2022-09-13T09:49:15;1.50;;;1.50;;
4616;SDS011;2321;42.704;23.384;2022-09-13T09:52:02;1.00;;;1.00;;
4616;SDS011;2321;42.704;23.384;2022-09-13T09:54:34;1.80;;;1.70;;
4616;SDS011;2321;42.704;23.384;2022-09-13T09:57:03;2.97;;;2.67;;
4616;SDS011;2321;42.704;23.384;2022-09-13T09:59:32;2.00;;;1.80;;
4616;SDS011;2321;42.704;23.384;2022-09-13T10:02:01;2.00;;;1.90;;
4616;SDS011;2321;42.704;23.384;2022-09-13T10:04:40;1.33;;;1.30;;
4616;SDS011;2321;42.704;23.384;2022-09-13T10:07:26;2.70;;;1.40;;
4616;SDS011;2321;42.704;23.384;2022-09-13T10:09:59;1.23;;;1.23;;
4616;SDS011;2321;42.704;23.384;2022-09-13T10:12:28;1.57;;;1.50;;
4616;SDS011;2321;42.704;23.384;2022-09-13T10:15:02;1.93;;;1.83;;
4616;SDS011;2321;42.704;23.384;2022-09-13T10:17:40;1.40;;;1.33;;
4616;SDS011;2321;42.704;23.384;2022-09-13T10:20:18;1.47;;;1.47;;
4616;SDS011;2321;42.704;23.384;2022-09-13T10:23:07;2.00;;;1.90;;
4616;SDS011;2321;42.704;23.384;2022-09-13T10:25:38;2.17;;;2.07;;
4616;SDS011;2321;42.704;23.384;2022-09-13T10:28:10;1.40;;;1.40;;
4616;SDS011;2321;42.704;23.384;2022-09-13T10:30:41;1.53;;;1.50;;
4616;SDS011;2321;42.704;23.384;2022-09-13T10:33:16;1.30;;;1.30;;
4616;SDS011;2321;42.704;23.384;2022-09-13T10:35:51;2.83;;;1.40;;
4616;SDS011;2321;42.704;23.384;2022-09-13T10:38:22;3.40;;;2.10;;
4616;SDS011;2321;42.704;23.384;2022-09-13T10:40:55;1.20;;;1.20;;
4616;SDS011;2321;42.704;23.384;2022-09-13T10:43:22;1.60;;;1.50;;
4616;SDS011;2321;42.704;23.384;2022-09-13T10:45:52;1.27;;;1.27;;
4616;SDS011;2321;42.704;23.384;2022-09-13T10:48:20;1.30;;;1.30;;
4616;SDS011;2321;42.704;23.384;2022-09-13T10:51:02;1.30;;;1.30;;
4616;SDS011;2321;42.704;23.384;2022-09-13T10:53:32;1.60;;;1.47;;
4616;SDS011;2321;42.704;23.384;2022-09-13T10:56:03;1.40;;;1.40;;
4616;SDS011;2321;42.704;23.384;2022-09-13T10:58:31;1.27;;;1.27;;
4616;SDS011;2321;42.704;23.384;2022-09-13T11:01:12;1.53;;;1.53;;
4616;SDS011;2321;42.704;23.384;2022-09-13T11:07:00;2.07;;;1.97;;
4616;SDS011;2321;42.704;23.384;2022-09-13T11:09:37;1.33;;;1.23;;
4616;SDS011;2321;42.704;23.384;2022-09-13T11:12:12;1.43;;;1.43;;
4616;SDS011;2321;42.704;23.384;2022-09-13T11:14:48;1.00;;;1.00;;
4616;SDS011;2321;42.704;23.384;2022-09-13T11:17:30;5.50;;;2.20;;
4616;SDS011;2321;42.704;23.384;2022-09-13T11:20:21;1.30;;;1.30;;
4616;SDS011;2321;42.704;23.384;2022-09-13T11:23:04;1.30;;;1.30;;
4616;SDS011;2321;42.704;23.384;2022-09-13T11:25:52;1.70;;;1.60;;
4616;SDS011;2321;42.704;23.384;2022-09-13T11:28:29;1.80;;;1.70;;
4616;SDS011;2321;42.704;23.384;2022-09-13T11:31:18;1.47;;;1.47;;
4616;SDS011;2321;42.704;23.384;2022-09-13T11:33:58;1.43;;;1.43;;
4616;SDS011;2321;42.704;23.384;2022-09-13T11:36:44;1.23;;;1.20;;
4616;SDS011;2321;42.704;23.384;2022-09-13T11:39:22;1.70;;;1.53;;
4616;SDS011;2321;42.704;23.384;2022-09-13T11:41:58;1.90;;;1.80;;
4616;SDS011;2321;42.704;23.384;2022-09-13T11:44:34;1.60;;;1.60;;
4616;SDS011;2321;42.704;23.384;2022-09-13T11:47:19;1.57;;;1.57;;
4616;SDS011;2321;42.704;23.384;2022-09-13T11:49:59;1.70;;;1.60;;
4616;SDS011;2321;42.704;23.384;2022-09-13T11:52:40;2.37;;;2.17;;
4616;SDS011;2321;42.704;23.384;2022-09-13T11:55:20;1.17;;;1.17;;
4616;SDS011;2321;42.704;23.384;2022-09-13T11:57:51;1.30;;;1.20;;
4616;SDS011;2321;42.704;23.384;2022-09-13T12:00:24;1.30;;;1.30;;
4616;SDS011;2321;42.704;23.384;2022-09-13T12:02:59;1.50;;;1.40;;
4616;SDS011;2321;42.704;23.384;2022-09-13T12:05:33;1.20;;;1.20;;
4616;SDS011;2321;42.704;23.384;2022-09-13T12:08:05;1.37;;;1.37;;
4616;SDS011;2321;42.704;23.384;2022-09-13T12:10:41;1.43;;;1.43;;
4616;SDS011;2321;42.704;23.384;2022-09-13T12:13:13;1.07;;;1.07;;
4616;SDS011;2321;42.704;23.384;2022-09-13T12:15:46;1.50;;;1.50;;
4616;SDS011;2321;42.704;23.384;2022-09-13T12:18:18;1.30;;;1.30;;
4616;SDS011;2321;42.704;23.384;2022-09-13T12:20:48;1.30;;;1.30;;
4616;SDS011;2321;42.704;23.384;2022-09-13T12:23:19;1.77;;;1.77;;
4616;SDS011;2321;42.704;23.384;2022-09-13T12:25:54;2.40;;;1.33;;
4616;SDS011;2321;42.704;23.384;2022-09-13T12:28:25;1.30;;;1.30;;
4616;SDS011;2321;42.704;23.384;2022-09-13T12:30:57;1.57;;;1.47;;
4616;SDS011;2321;42.704;23.384;2022-09-13T12:33:27;1.47;;;1.37;;
4616;SDS011;2321;42.704;23.384;2022-09-13T12:39:09;2.03;;;1.20;;
4616;SDS011;2321;42.704;23.384;2022-09-13T12:42:00;1.97;;;1.80;;
4616;SDS011;2321;42.704;23.384;2022-09-13T12:44:48;2.20;;;1.33;;
4616;SDS011;2321;42.704;23.384;2022-09-13T12:47:45;2.33;;;1.60;;
4616;SDS011;2321;42.704;23.384;2022-09-13T12:53:52;1.07;;;1.07;;
4616;SDS011;2321;42.704;23.384;2022-09-13T12:56:44;1.53;;;1.33;;
4616;SDS011;2321;42.704;23.384;2022-09-13T12:59:26;1.20;;;1.20;;
4616;SDS011;2321;42.704;23.384;2022-09-13T13:02:18;1.47;;;1.47;;
4616;SDS011;2321;42.704;23.384;2022-09-13T13:04:54;1.20;;;1.20;;
4616;SDS011;2321;42.704;23.384;2022-09-13T13:07:24;1.03;;;1.03;;
4616;SDS011;2321;42.704;23.384;2022-09-13T13:09:53;8.03;;;1.77;;
4616;SDS011;2321;42.704;23.384;2022-09-13T13:12:26;1.30;;;1.20;;
4616;SDS011;2321;42.704;23.384;2022-09-13T13:14:56;1.40;;;1.30;;
4616;SDS011;2321;42.704;23.384;2022-09-13T13:23:14;1.03;;;1.03;;
4616;SDS011;2321;42.704;23.384;2022-09-13T13:25:55;1.47;;;1.37;;
4616;SDS011;2321;42.704;23.384;2022-09-13T13:34:02;1.20;;;1.20;;
4616;SDS011;2321;42.704;23.384;2022-09-13T13:36:52;1.40;;;1.30;;
4616;SDS011;2321;42.704;23.384;2022-09-13T13:39:34;1.50;;;1.40;;
4616;SDS011;2321;42.704;23.384;2022-09-13T13:42:09;1.43;;;1.33;;
4616;SDS011;2321;42.704;23.384;2022-09-13T13:44:55;1.60;;;1.50;;
4616;SDS011;2321;42.704;23.384;2022-09-13T13:53:46;1.50;;;1.50;;
4616;SDS011;2321;42.704;23.384;2022-09-13T13:56:19;17.30;;;1.47;;
4616;SDS011;2321;42.704;23.384;2022-09-13T13:58:51;1.80;;;1.70;;
4616;SDS011;2321;42.704;23.384;2022-09-13T14:01:24;1.63;;;1.63;;
4616;SDS011;2321;42.704;23.384;2022-09-13T14:07:12;1.57;;;1.47;;
4616;SDS011;2321;42.704;23.384;2022-09-13T14:09:56;2.30;;;2.20;;
4616;SDS011;2321;42.704;23.384;2022-09-13T14:12:31;1.60;;;1.60;;
4616;SDS011;2321;42.704;23.384;2022-09-13T14:15:14;1.80;;;1.80;;
4616;SDS011;2321;42.704;23.384;2022-09-13T14:17:56;1.67;;;1.67;;
4616;SDS011;2321;42.704;23.384;2022-09-13T14:20:55;6.37;;;1.40;;
4616;SDS011;2321;42.704;23.384;2022-09-13T14:23:23;1.63;;;1.63;;
4616;SDS011;2321;42.704;23.384;2022-09-13T14:25:54;1.70;;;1.60;;
4616;SDS011;2321;42.704;23.384;2022-09-13T14:28:22;1.77;;;1.67;;
4616;SDS011;2321;42.704;23.384;2022-09-13T14:30:52;2.03;;;1.93;;
4616;SDS011;2321;42.704;23.384;2022-09-13T14:33:21;1.97;;;1.80;;
4616;SDS011;2321;42.704;23.384;2022-09-13T14:35:58;1.03;;;1.03;;
4616;SDS011;2321;42.704;23.384;2022-09-13T14:38:28;1.30;;;1.30;;
4616;SDS011;2321;42.704;23.384;2022-09-13T14:41:01;3.80;;;1.57;;
4616;SDS011;2321;42.704;23.384;2022-09-13T14:43:37;3.00;;;1.97;;
4616;SDS011;2321;42.704;23.384;2022-09-13T14:46:05;2.00;;;1.90;;
4616;SDS011;2321;42.704;23.384;2022-09-13T14:48:37;1.97;;;1.80;;
4616;SDS011;2321;42.704;23.384;2022-09-13T14:51:07;1.53;;;1.53;;
4616;SDS011;2321;42.704;23.384;2022-09-13T14:53:42;2.17;;;2.07;;
4616;SDS011;2321;42.704;23.384;2022-09-13T14:56:15;2.03;;;1.83;;
4616;SDS011;2321;42.704;23.384;2022-09-13T14:58:45;1.83;;;1.73;;
4616;SDS011;2321;42.704;23.384;2022-09-13T15:01:15;1.60;;;1.60;;
4616;SDS011;2321;42.704;23.384;2022-09-13T15:03:46;1.97;;;1.90;;
4616;SDS011;2321;42.704;23.384;2022-09-13T15:06:20;2.57;;;2.33;;
4616;SDS011;2321;42.704;23.384;2022-09-13T15:08:49;6.10;;;1.50;;
4616;SDS011;2321;42.704;23.384;2022-09-13T15:11:27;1.53;;;1.43;;
4616;SDS011;2321;42.704;23.384;2022-09-13T15:13:59;2.20;;;1.73;;
4616;SDS011;2321;42.704;23.384;2022-09-13T15:16:28;1.67;;;1.57;;
4616;SDS011;2321;42.704;23.384;2022-09-13T15:19:16;6.63;;;1.50;;
4616;SDS011;2321;42.704;23.384;2022-09-13T15:21:53;2.20;;;2.10;;
4616;SDS011;2321;42.704;23.384;2022-09-13T15:24:29;1.67;;;1.60;;
4616;SDS011;2321;42.704;23.384;2022-09-13T15:27:03;1.90;;;1.80;;
4616;SDS011;2321;42.704;23.384;2022-09-13T15:29:31;1.57;;;1.57;;
4616;SDS011;2321;42.704;23.384;2022-09-13T15:32:02;1.37;;;1.37;;
4616;SDS011;2321;42.704;23.384;2022-09-13T15:34:29;2.10;;;1.70;;
4616;SDS011;2321;42.704;23.384;2022-09-13T15:37:07;2.10;;;2.00;;
4616;SDS011;2321;42.704;23.384;2022-09-13T15:39:45;1.87;;;1.73;;
4616;SDS011;2321;42.704;23.384;2022-09-13T15:42:15;3.23;;;1.70;;
4616;SDS011;2321;42.704;23.384;2022-09-13T15:44:43;7.30;;;2.87;;
4616;SDS011;2321;42.704;23.384;2022-09-13T15:47:10;2.10;;;2.00;;
4616;SDS011;2321;42.704;23.384;2022-09-13T15:49:46;1.40;;;1.40;;
4616;SDS011;2321;42.704;23.384;2022-09-13T15:52:15;1.97;;;1.87;;
4616;SDS011;2321;42.704;23.384;2022-09-13T15:54:43;1.83;;;1.73;;
4616;SDS011;2321;42.704;23.384;2022-09-13T15:57:15;3.17;;;2.60;;
4616;SDS011;2321;42.704;23.384;2022-09-13T15:59:46;2.53;;;2.10;;
4616;SDS011;2321;42.704;23.384;2022-09-13T16:02:16;4.40;;;3.00;;
4616;SDS011;2321;42.704;23.384;2022-09-13T16:04:45;2.03;;;1.97;;
4616;SDS011;2321;42.704;23.384;2022-09-13T16:07:12;1.73;;;1.73;;